Fort Lauderdale, FL

12:40 AM EDT on June 03, 2015 (GMT -0400)
Victoria Park | | Change Station
CLOSE
Current Station
Personal Weather Station
Location: Fort Lauderdale, FL
Elevation: 30 ft
Nearby Weather Stations

Elev 30 ft 26.13 °N, 80.13 °W | Updated 3 minutes ago

Overcast
Overcast
75.9 °F
Feels Like 75 °F
N
0.0
Wind Variable Wind from WNW

Today
High -- | Low -- °F
--% Chance of Precip.
Yesterday
High -- | Low -- °F
Precip. -- in
6:28 AM 8:09 PM
Full, 100% visible
Pressure 29.96 in
Visibility 10.0 miles
Clouds Few 2300 ft
Mostly Cloudy 9000 ft
Heat Index 75 °F
Dew Point 75 °F
Humidity 98%
Rainfall 0.00 in
Snow Depth Not available.
UV 0 out of 12
Pollen 1.10 out of 12
Air Quality Not available.
Flu Activity Sporadic
METAR KFLL 030353Z 16004KT 10SM FEW023 BKN090 25/23 A2996 RMK AO2 RAE14 SLP145 P0001 T02500228

More Conditions Fewer Conditions

Pressure 29.96 in
Visibility 10.0 miles
Clouds Few 2300 ft
Mostly Cloudy 9000 ft
Heat Index 75 °F
Dew Point 75 °F
Humidity 98%
Rainfall 0.00 in
Snow Depth Not available.
UV 0 out of 12
Pollen 1.10 out of 12
Air Quality Not available.
Flu Activity Sporadic
METAR KFLL 030353Z 16004KT 10SM FEW023 BKN090 25/23 A2996 RMK AO2 RAE14 SLP145 P0001 T02500228

More Conditions Fewer Conditions

Nowcast | as of 11:18 PM EDT on June 2, 2015

Diminishing areas of light rain are being replaced by some showers and isolated storms over portions of the East Coast and the interior. Additional scattered showers and a few thunderstorms will redevelop this morning. Brief heavy downpours and a few rumbles of thunder are possible with the strongest showers.

×

10-Day Weather Forecast

×

Almanac

Astronomy

Jun. 03, 2015 Rise Set
Actual Time
Civil Twilight
Nautical Twilight
Astronomical Twilight
Moon
Length of Visible Light
Length of Day
Tomorrow will be .
, % of the Moon is Illuminated

Today's Extremes

State Highs State Lows

Community

WunderPhotos

Upload Photos

1,826,166 photos uploaded!

WunderBlogs® & News

Nearby

Air Quality

  Air Quality AQ Index Pollutant
Not available.

Snow Depth

Station Depth Elevation

Earthquake Activity

City Distance Mag. Time & Date
Minimum magnitude displayed is 2.5.

Coastal Water Temperatures

Place Temperature

Stations

Nearby Weather Stations

Station Location Temp. Windchill Dew Point Humidity Wind Precip. Elev Updated Type